sensor_id;sensor_type;location;lat;lon;timestamp;temperature;humidity
44729;DHT22;30457;53.590;9.922;2022-10-10T00:00:59;14.00;52.60
44729;DHT22;30457;53.590;9.922;2022-10-10T00:05:24;14.00;52.60
44729;DHT22;30457;53.590;9.922;2022-10-10T00:09:50;14.00;52.70
44729;DHT22;30457;53.590;9.922;2022-10-10T00:14:16;14.00;52.80
44729;DHT22;30457;53.590;9.922;2022-10-10T00:18:42;13.90;52.70
44729;DHT22;30457;53.590;9.922;2022-10-10T00:23:07;13.90;52.80
44729;DHT22;30457;53.590;9.922;2022-10-10T00:27:33;13.90;52.80
44729;DHT22;30457;53.590;9.922;2022-10-10T00:31:59;13.90;52.80
44729;DHT22;30457;53.590;9.922;2022-10-10T00:36:24;13.90;52.90
44729;DHT22;30457;53.590;9.922;2022-10-10T00:40:54;13.90;53.00
44729;DHT22;30457;53.590;9.922;2022-10-10T00:45:44;13.90;53.10
44729;DHT22;30457;53.590;9.922;2022-10-10T00:50:11;13.80;53.10
44729;DHT22;30457;53.590;9.922;2022-10-10T00:54:38;13.80;53.00
44729;DHT22;30457;53.590;9.922;2022-10-10T00:59:05;13.80;53.00
44729;DHT22;30457;53.590;9.922;2022-10-10T01:03:32;13.80;53.00
44729;DHT22;30457;53.590;9.922;2022-10-10T01:07:59;13.80;53.20
44729;DHT22;30457;53.590;9.922;2022-10-10T01:17:33;13.70;53.20
44729;DHT22;30457;53.590;9.922;2022-10-10T01:31:38;13.70;53.40
44729;DHT22;30457;53.590;9.922;2022-10-10T01:36:26;13.60;53.30
44729;DHT22;30457;53.590;9.922;2022-10-10T01:41:12;13.60;53.40
44729;DHT22;30457;53.590;9.922;2022-10-10T01:45:47;13.60;53.40
44729;DHT22;30457;53.590;9.922;2022-10-10T01:50:17;13.50;53.30
44729;DHT22;30457;53.590;9.922;2022-10-10T01:55:02;13.50;53.30
44729;DHT22;30457;53.590;9.922;2022-10-10T02:04:52;13.40;53.50
44729;DHT22;30457;53.590;9.922;2022-10-10T02:09:27;13.40;53.60
44729;DHT22;30457;53.590;9.922;2022-10-10T02:14:02;13.40;53.50
44729;DHT22;30457;53.590;9.922;2022-10-10T02:18:32;13.30;53.50
44729;DHT22;30457;53.590;9.922;2022-10-10T02:22:59;13.30;53.60
44729;DHT22;30457;53.590;9.922;2022-10-10T02:27:45;13.30;53.60
44729;DHT22;30457;53.590;9.922;2022-10-10T02:32:28;13.20;53.70
44729;DHT22;30457;53.590;9.922;2022-10-10T02:36:59;13.20;53.80
44729;DHT22;30457;53.590;9.922;2022-10-10T02:41:27;13.20;53.70
44729;DHT22;30457;53.590;9.922;2022-10-10T02:45:53;13.10;53.70
44729;DHT22;30457;53.590;9.922;2022-10-10T02:50:20;13.10;53.80
44729;DHT22;30457;53.590;9.922;2022-10-10T02:54:45;13.10;53.90
44729;DHT22;30457;53.590;9.922;2022-10-10T02:59:12;13.10;53.90
44729;DHT22;30457;53.590;9.922;2022-10-10T03:03:37;13.00;53.90
44729;DHT22;30457;53.590;9.922;2022-10-10T03:08:03;13.00;54.00
44729;DHT22;30457;53.590;9.922;2022-10-10T03:12:28;13.00;54.10
44729;DHT22;30457;53.590;9.922;2022-10-10T03:16:54;13.00;54.10
44729;DHT22;30457;53.590;9.922;2022-10-10T03:21:19;12.90;54.10
44729;DHT22;30457;53.590;9.922;2022-10-10T03:25:45;12.90;54.20
44729;DHT22;30457;53.590;9.922;2022-10-10T03:30:11;12.90;54.20
44729;DHT22;30457;53.590;9.922;2022-10-10T03:34:37;12.90;54.20
44729;DHT22;30457;53.590;9.922;2022-10-10T03:39:03;12.80;54.10
44729;DHT22;30457;53.590;9.922;2022-10-10T03:43:28;12.80;54.10
44729;DHT22;30457;53.590;9.922;2022-10-10T03:47:54;12.80;54.20
44729;DHT22;30457;53.590;9.922;2022-10-10T03:52:19;12.70;54.30
44729;DHT22;30457;53.590;9.922;2022-10-10T03:56:46;12.70;54.30
44729;DHT22;30457;53.590;9.922;2022-10-10T04:01:12;12.70;54.40
44729;DHT22;30457;53.590;9.922;2022-10-10T04:05:38;12.60;54.40
44729;DHT22;30457;53.590;9.922;2022-10-10T04:10:04;12.60;54.50
44729;DHT22;30457;53.590;9.922;2022-10-10T04:14:30;12.50;54.40
44729;DHT22;30457;53.590;9.922;2022-10-10T04:18:55;12.50;54.40
44729;DHT22;30457;53.590;9.922;2022-10-10T04:23:21;12.50;54.30
44729;DHT22;30457;53.590;9.922;2022-10-10T04:27:46;12.40;54.30
44729;DHT22;30457;53.590;9.922;2022-10-10T04:32:12;12.40;54.40
44729;DHT22;30457;53.590;9.922;2022-10-10T04:36:37;12.30;54.40
44729;DHT22;30457;53.590;9.922;2022-10-10T04:41:03;12.30;54.50
44729;DHT22;30457;53.590;9.922;2022-10-10T04:45:29;12.20;54.50
44729;DHT22;30457;53.590;9.922;2022-10-10T04:49:55;12.20;54.70
44729;DHT22;30457;53.590;9.922;2022-10-10T04:54:20;12.20;54.80
44729;DHT22;30457;53.590;9.922;2022-10-10T04:58:47;12.10;54.70
44729;DHT22;30457;53.590;9.922;2022-10-10T05:03:13;12.10;54.90
44729;DHT22;30457;53.590;9.922;2022-10-10T05:07:38;12.00;54.90
44729;DHT22;30457;53.590;9.922;2022-10-10T05:12:05;12.00;55.10
44729;DHT22;30457;53.590;9.922;2022-10-10T05:16:31;12.10;55.20
44729;DHT22;30457;53.590;9.922;2022-10-10T05:20:56;11.90;55.10
44729;DHT22;30457;53.590;9.922;2022-10-10T05:25:22;11.90;55.10
44729;DHT22;30457;53.590;9.922;2022-10-10T05:29:48;11.80;55.20
44729;DHT22;30457;53.590;9.922;2022-10-10T05:34:14;11.90;55.20
44729;DHT22;30457;53.590;9.922;2022-10-10T05:38:40;11.80;55.30
44729;DHT22;30457;53.590;9.922;2022-10-10T05:43:05;11.80;55.50
44729;DHT22;30457;53.590;9.922;2022-10-10T05:47:31;11.80;55.50
44729;DHT22;30457;53.590;9.922;2022-10-10T05:51:56;11.80;55.50
44729;DHT22;30457;53.590;9.922;2022-10-10T05:56:22;11.80;55.50
44729;DHT22;30457;53.590;9.922;2022-10-10T06:00:48;11.80;55.70
44729;DHT22;30457;53.590;9.922;2022-10-10T06:05:13;11.80;55.70
44729;DHT22;30457;53.590;9.922;2022-10-10T06:09:39;11.90;55.80
44729;DHT22;30457;53.590;9.922;2022-10-10T06:14:05;11.80;55.70
44729;DHT22;30457;53.590;9.922;2022-10-10T06:18:30;11.80;55.70
44729;DHT22;30457;53.590;9.922;2022-10-10T06:22:56;11.80;55.80
44729;DHT22;30457;53.590;9.922;2022-10-10T06:27:21;11.80;55.90
44729;DHT22;30457;53.590;9.922;2022-10-10T06:31:47;11.80;56.00
44729;DHT22;30457;53.590;9.922;2022-10-10T06:36:15;11.80;56.00
44729;DHT22;30457;53.590;9.922;2022-10-10T06:40:41;11.90;56.20
44729;DHT22;30457;53.590;9.922;2022-10-10T06:45:07;11.80;56.30
44729;DHT22;30457;53.590;9.922;2022-10-10T06:49:33;11.90;56.30
44729;DHT22;30457;53.590;9.922;2022-10-10T06:53:59;12.00;56.30
44729;DHT22;30457;53.590;9.922;2022-10-10T06:58:26;12.10;56.30
44729;DHT22;30457;53.590;9.922;2022-10-10T07:02:52;12.20;56.40
44729;DHT22;30457;53.590;9.922;2022-10-10T07:07:17;12.40;56.20
44729;DHT22;30457;53.590;9.922;2022-10-10T07:11:43;12.60;56.30
44729;DHT22;30457;53.590;9.922;2022-10-10T07:16:10;12.60;56.10
44729;DHT22;30457;53.590;9.922;2022-10-10T07:20:36;12.70;56.00
44729;DHT22;30457;53.590;9.922;2022-10-10T07:25:02;12.80;55.80
44729;DHT22;30457;53.590;9.922;2022-10-10T07:29:29;13.00;55.80
44729;DHT22;30457;53.590;9.922;2022-10-10T07:33:54;13.10;55.80
44729;DHT22;30457;53.590;9.922;2022-10-10T07:38:20;13.20;55.70
44729;DHT22;30457;53.590;9.922;2022-10-10T07:42:46;13.40;55.70
44729;DHT22;30457;53.590;9.922;2022-10-10T07:47:11;13.50;56.20
44729;DHT22;30457;53.590;9.922;2022-10-10T07:51:37;13.60;55.50
44729;DHT22;30457;53.590;9.922;2022-10-10T07:56:04;13.80;55.30
44729;DHT22;30457;53.590;9.922;2022-10-10T08:00:30;14.00;55.10
44729;DHT22;30457;53.590;9.922;2022-10-10T08:04:56;14.20;55.10
44729;DHT22;30457;53.590;9.922;2022-10-10T08:09:21;14.40;55.10
44729;DHT22;30457;53.590;9.922;2022-10-10T08:13:47;14.60;55.00
44729;DHT22;30457;53.590;9.922;2022-10-10T08:18:14;14.80;54.80
44729;DHT22;30457;53.590;9.922;2022-10-10T08:22:40;14.90;54.50
44729;DHT22;30457;53.590;9.922;2022-10-10T08:27:06;15.10;54.50
44729;DHT22;30457;53.590;9.922;2022-10-10T08:31:31;15.40;54.40
44729;DHT22;30457;53.590;9.922;2022-10-10T08:35:57;15.60;54.20
44729;DHT22;30457;53.590;9.922;2022-10-10T08:40:23;15.80;54.00
44729;DHT22;30457;53.590;9.922;2022-10-10T08:44:55;16.00;54.00
44729;DHT22;30457;53.590;9.922;2022-10-10T08:49:34;16.30;53.70
44729;DHT22;30457;53.590;9.922;2022-10-10T08:54:03;16.50;53.20
44729;DHT22;30457;53.590;9.922;2022-10-10T08:58:33;16.80;53.20
44729;DHT22;30457;53.590;9.922;2022-10-10T09:03:04;17.00;53.10
44729;DHT22;30457;53.590;9.922;2022-10-10T09:13:08;17.50;51.70
44729;DHT22;30457;53.590;9.922;2022-10-10T09:18:09;17.70;51.90
44729;DHT22;30457;53.590;9.922;2022-10-10T09:22:51;17.90;51.10
44729;DHT22;30457;53.590;9.922;2022-10-10T09:27:28;18.10;50.90
44729;DHT22;30457;53.590;9.922;2022-10-10T09:32:17;18.30;50.80
44729;DHT22;30457;53.590;9.922;2022-10-10T09:36:46;18.40;50.80
44729;DHT22;30457;53.590;9.922;2022-10-10T09:42:02;18.50;50.30
44729;DHT22;30457;53.590;9.922;2022-10-10T09:46:02;18.60;50.30
44729;DHT22;30457;53.590;9.922;2022-10-10T09:50:28;18.70;50.50
44729;DHT22;30457;53.590;9.922;2022-10-10T09:55:00;18.80;50.20
44729;DHT22;30457;53.590;9.922;2022-10-10T09:59:46;19.00;50.00
44729;DHT22;30457;53.590;9.922;2022-10-10T10:04:15;19.00;49.10
44729;DHT22;30457;53.590;9.922;2022-10-10T10:08:42;19.10;49.80
44729;DHT22;30457;53.590;9.922;2022-10-10T10:13:20;19.10;49.50
44729;DHT22;30457;53.590;9.922;2022-10-10T10:18:10;19.20;49.00
44729;DHT22;30457;53.590;9.922;2022-10-10T10:22:38;19.20;48.40
44729;DHT22;30457;53.590;9.922;2022-10-10T10:27:09;19.30;49.20
44729;DHT22;30457;53.590;9.922;2022-10-10T10:31:52;19.30;49.10
44729;DHT22;30457;53.590;9.922;2022-10-10T10:41:32;19.40;48.50
44729;DHT22;30457;53.590;9.922;2022-10-10T10:46:38;19.40;48.10
44729;DHT22;30457;53.590;9.922;2022-10-10T11:01:14;19.70;48.20
44729;DHT22;30457;53.590;9.922;2022-10-10T11:06:19;19.70;48.50
44729;DHT22;30457;53.590;9.922;2022-10-10T11:11:07;19.90;48.00
44729;DHT22;30457;53.590;9.922;2022-10-10T11:15:42;20.00;48.10
44729;DHT22;30457;53.590;9.922;2022-10-10T11:20:27;20.10;48.20
44729;DHT22;30457;53.590;9.922;2022-10-10T11:25:07;20.30;48.40
44729;DHT22;30457;53.590;9.922;2022-10-10T11:30:06;20.40;47.80
44729;DHT22;30457;53.590;9.922;2022-10-10T11:34:41;20.50;47.50
44729;DHT22;30457;53.590;9.922;2022-10-10T11:39:22;20.60;47.60
44729;DHT22;30457;53.590;9.922;2022-10-10T11:48:28;20.90;47.20
44729;DHT22;30457;53.590;9.922;2022-10-10T11:53:32;21.00;47.00
44729;DHT22;30457;53.590;9.922;2022-10-10T12:02:36;21.20;46.80
44729;DHT22;30457;53.590;9.922;2022-10-10T12:07:18;21.30;46.80
44729;DHT22;30457;53.590;9.922;2022-10-10T12:11:54;21.30;47.50
44729;DHT22;30457;53.590;9.922;2022-10-10T12:16:25;21.40;47.00
44729;DHT22;30457;53.590;9.922;2022-10-10T12:21:10;21.50;46.60
44729;DHT22;30457;53.590;9.922;2022-10-10T12:25:43;21.50;46.40
44729;DHT22;30457;53.590;9.922;2022-10-10T12:30:19;21.60;46.60
44729;DHT22;30457;53.590;9.922;2022-10-10T12:43:51;21.60;46.80
44729;DHT22;30457;53.590;9.922;2022-10-10T12:48:36;21.70;46.40
44729;DHT22;30457;53.590;9.922;2022-10-10T12:53:04;21.70;46.60
44729;DHT22;30457;53.590;9.922;2022-10-10T12:57:40;21.80;46.60
44729;DHT22;30457;53.590;9.922;2022-10-10T13:02:23;21.90;46.10
44729;DHT22;30457;53.590;9.922;2022-10-10T13:06:52;22.00;46.20
44729;DHT22;30457;53.590;9.922;2022-10-10T13:11:18;22.00;46.20
44729;DHT22;30457;53.590;9.922;2022-10-10T13:15:55;22.00;46.10
44729;DHT22;30457;53.590;9.922;2022-10-10T13:24:53;22.10;46.10
44729;DHT22;30457;53.590;9.922;2022-10-10T13:29:31;22.10;46.00
44729;DHT22;30457;53.590;9.922;2022-10-10T13:34:03;22.10;45.40
44729;DHT22;30457;53.590;9.922;2022-10-10T13:38:30;22.20;46.60
44729;DHT22;30457;53.590;9.922;2022-10-10T13:42:56;22.20;46.20
44729;DHT22;30457;53.590;9.922;2022-10-10T13:47:42;22.30;45.60
44729;DHT22;30457;53.590;9.922;2022-10-10T13:52:21;22.30;44.70
44729;DHT22;30457;53.590;9.922;2022-10-10T13:56:46;22.20;45.00
44729;DHT22;30457;53.590;9.922;2022-10-10T14:05:56;22.10;45.00
44729;DHT22;30457;53.590;9.922;2022-10-10T14:10:24;22.10;45.20
44729;DHT22;30457;53.590;9.922;2022-10-10T14:14:52;22.00;44.90
44729;DHT22;30457;53.590;9.922;2022-10-10T14:19:23;21.90;45.10
44729;DHT22;30457;53.590;9.922;2022-10-10T14:23:49;21.80;45.00
44729;DHT22;30457;53.590;9.922;2022-10-10T14:28:17;21.80;44.80
44729;DHT22;30457;53.590;9.922;2022-10-10T14:32:43;21.70;44.70
44729;DHT22;30457;53.590;9.922;2022-10-10T14:37:27;21.60;45.00
44729;DHT22;30457;53.590;9.922;2022-10-10T14:41:52;21.50;44.80
44729;DHT22;30457;53.590;9.922;2022-10-10T14:46:18;21.50;45.30
44729;DHT22;30457;53.590;9.922;2022-10-10T14:50:46;21.50;45.40
44729;DHT22;30457;53.590;9.922;2022-10-10T14:55:12;21.50;45.50
44729;DHT22;30457;53.590;9.922;2022-10-10T14:59:38;21.40;45.20
44729;DHT22;30457;53.590;9.922;2022-10-10T15:04:03;21.30;45.50
44729;DHT22;30457;53.590;9.922;2022-10-10T15:08:29;21.30;45.30
44729;DHT22;30457;53.590;9.922;2022-10-10T15:12:54;21.30;45.40
44729;DHT22;30457;53.590;9.922;2022-10-10T15:17:21;21.20;45.50
44729;DHT22;30457;53.590;9.922;2022-10-10T15:21:46;21.20;45.50
44729;DHT22;30457;53.590;9.922;2022-10-10T15:26:12;21.10;46.10
44729;DHT22;30457;53.590;9.922;2022-10-10T15:30:38;21.10;45.70
44729;DHT22;30457;53.590;9.922;2022-10-10T15:35:04;21.10;45.90
44729;DHT22;30457;53.590;9.922;2022-10-10T15:39:29;21.00;46.00
44729;DHT22;30457;53.590;9.922;2022-10-10T15:43:55;21.00;46.00
44729;DHT22;30457;53.590;9.922;2022-10-10T15:48:21;21.00;45.90
44729;DHT22;30457;53.590;9.922;2022-10-10T15:52:47;20.90;46.10
44729;DHT22;30457;53.590;9.922;2022-10-10T15:57:13;20.90;46.10
44729;DHT22;30457;53.590;9.922;2022-10-10T16:01:39;20.80;46.00
44729;DHT22;30457;53.590;9.922;2022-10-10T16:06:05;20.80;46.20
44729;DHT22;30457;53.590;9.922;2022-10-10T16:10:39;20.70;46.70
44729;DHT22;30457;53.590;9.922;2022-10-10T16:15:05;20.60;47.10
44729;DHT22;30457;53.590;9.922;2022-10-10T16:19:31;20.50;47.20
44729;DHT22;30457;53.590;9.922;2022-10-10T16:23:56;20.30;47.40
44729;DHT22;30457;53.590;9.922;2022-10-10T16:28:22;20.20;47.70
44729;DHT22;30457;53.590;9.922;2022-10-10T16:32:48;20.00;48.10
44729;DHT22;30457;53.590;9.922;2022-10-10T16:37:14;19.80;48.70
44729;DHT22;30457;53.590;9.922;2022-10-10T16:41:39;19.70;49.30
44729;DHT22;30457;53.590;9.922;2022-10-10T16:46:07;19.50;49.70
44729;DHT22;30457;53.590;9.922;2022-10-10T16:50:32;19.40;50.30
44729;DHT22;30457;53.590;9.922;2022-10-10T16:54:58;19.30;50.60
44729;DHT22;30457;53.590;9.922;2022-10-10T16:59:24;19.20;51.10
44729;DHT22;30457;53.590;9.922;2022-10-10T17:03:50;19.10;51.30
44729;DHT22;30457;53.590;9.922;2022-10-10T17:08:16;19.00;52.00
44729;DHT22;30457;53.590;9.922;2022-10-10T17:12:41;18.80;51.90
44729;DHT22;30457;53.590;9.922;2022-10-10T17:17:07;18.70;52.60
44729;DHT22;30457;53.590;9.922;2022-10-10T17:21:33;18.60;52.70
44729;DHT22;30457;53.590;9.922;2022-10-10T17:25:58;18.50;52.80
44729;DHT22;30457;53.590;9.922;2022-10-10T17:30:24;18.40;53.90
44729;DHT22;30457;53.590;9.922;2022-10-10T17:34:50;18.30;53.30
44729;DHT22;30457;53.590;9.922;2022-10-10T17:39:15;18.20;52.90
44729;DHT22;30457;53.590;9.922;2022-10-10T17:43:41;18.10;52.70
44729;DHT22;30457;53.590;9.922;2022-10-10T17:48:07;18.00;52.60
44729;DHT22;30457;53.590;9.922;2022-10-10T17:52:33;17.80;52.70
44729;DHT22;30457;53.590;9.922;2022-10-10T17:56:59;17.70;52.70
44729;DHT22;30457;53.590;9.922;2022-10-10T18:01:24;17.60;52.80
44729;DHT22;30457;53.590;9.922;2022-10-10T18:05:50;17.50;53.00
44729;DHT22;30457;53.590;9.922;2022-10-10T18:10:16;17.40;53.10
44729;DHT22;30457;53.590;9.922;2022-10-10T18:14:42;17.40;53.10
44729;DHT22;30457;53.590;9.922;2022-10-10T18:19:09;17.30;53.20
44729;DHT22;30457;53.590;9.922;2022-10-10T18:23:35;17.20;53.10
44729;DHT22;30457;53.590;9.922;2022-10-10T18:28:03;17.20;53.20
44729;DHT22;30457;53.590;9.922;2022-10-10T18:32:28;17.10;53.10
44729;DHT22;30457;53.590;9.922;2022-10-10T18:36:54;17.00;53.20
44729;DHT22;30457;53.590;9.922;2022-10-10T18:41:21;17.00;53.30
44729;DHT22;30457;53.590;9.922;2022-10-10T18:45:47;16.90;53.40
44729;DHT22;30457;53.590;9.922;2022-10-10T18:50:14;16.80;53.40
44729;DHT22;30457;53.590;9.922;2022-10-10T18:54:39;16.70;53.40
44729;DHT22;30457;53.590;9.922;2022-10-10T18:59:10;16.70;53.50
44729;DHT22;30457;53.590;9.922;2022-10-10T19:03:37;16.60;53.70
44729;DHT22;30457;53.590;9.922;2022-10-10T19:08:03;16.50;53.60
44729;DHT22;30457;53.590;9.922;2022-10-10T19:12:29;16.50;53.70
44729;DHT22;30457;53.590;9.922;2022-10-10T19:16:55;16.40;53.80
44729;DHT22;30457;53.590;9.922;2022-10-10T19:21:20;16.30;53.90
44729;DHT22;30457;53.590;9.922;2022-10-10T19:25:46;16.30;54.00
44729;DHT22;30457;53.590;9.922;2022-10-10T19:30:12;16.10;54.20
44729;DHT22;30457;53.590;9.922;2022-10-10T19:34:38;16.10;54.30
44729;DHT22;30457;53.590;9.922;2022-10-10T19:39:05;16.10;54.50
44729;DHT22;30457;53.590;9.922;2022-10-10T19:43:31;16.00;54.90
44729;DHT22;30457;53.590;9.922;2022-10-10T19:47:57;16.00;55.30
44729;DHT22;30457;53.590;9.922;2022-10-10T19:52:22;15.90;55.30
44729;DHT22;30457;53.590;9.922;2022-10-10T19:56:48;15.80;55.30
44729;DHT22;30457;53.590;9.922;2022-10-10T20:01:16;15.80;55.60
44729;DHT22;30457;53.590;9.922;2022-10-10T20:05:42;15.80;55.60
44729;DHT22;30457;53.590;9.922;2022-10-10T20:10:08;15.70;55.50
44729;DHT22;30457;53.590;9.922;2022-10-10T20:14:34;15.60;55.60
44729;DHT22;30457;53.590;9.922;2022-10-10T20:18:59;15.60;55.70
44729;DHT22;30457;53.590;9.922;2022-10-10T20:23:25;15.60;55.60
44729;DHT22;30457;53.590;9.922;2022-10-10T20:27:51;15.50;55.80
44729;DHT22;30457;53.590;9.922;2022-10-10T20:32:17;15.50;55.70
44729;DHT22;30457;53.590;9.922;2022-10-10T20:36:42;15.50;55.70
44729;DHT22;30457;53.590;9.922;2022-10-10T20:41:08;15.40;55.70
44729;DHT22;30457;53.590;9.922;2022-10-10T20:45:35;15.40;55.80
44729;DHT22;30457;53.590;9.922;2022-10-10T20:50:01;15.30;55.70
44729;DHT22;30457;53.590;9.922;2022-10-10T20:54:26;15.30;55.80
44729;DHT22;30457;53.590;9.922;2022-10-10T20:58:52;15.30;55.90
44729;DHT22;30457;53.590;9.922;2022-10-10T21:03:18;15.20;55.80
44729;DHT22;30457;53.590;9.922;2022-10-10T21:07:43;15.20;55.90
44729;DHT22;30457;53.590;9.922;2022-10-10T21:12:10;15.10;56.50
44729;DHT22;30457;53.590;9.922;2022-10-10T21:16:38;15.10;56.00
44729;DHT22;30457;53.590;9.922;2022-10-10T21:21:05;15.10;56.20
44729;DHT22;30457;53.590;9.922;2022-10-10T21:25:31;14.90;56.20
44729;DHT22;30457;53.590;9.922;2022-10-10T21:29:56;15.00;56.30
44729;DHT22;30457;53.590;9.922;2022-10-10T21:34:22;14.90;56.20
44729;DHT22;30457;53.590;9.922;2022-10-10T21:38:48;14.90;56.30
44729;DHT22;30457;53.590;9.922;2022-10-10T21:43:14;14.90;56.50
44729;DHT22;30457;53.590;9.922;2022-10-10T21:47:40;14.80;56.60
44729;DHT22;30457;53.590;9.922;2022-10-10T21:52:06;14.80;56.60
44729;DHT22;30457;53.590;9.922;2022-10-10T21:56:32;14.80;56.60
44729;DHT22;30457;53.590;9.922;2022-10-10T22:00:58;14.80;56.60
44729;DHT22;30457;53.590;9.922;2022-10-10T22:05:26;14.80;56.60
44729;DHT22;30457;53.590;9.922;2022-10-10T22:09:52;14.70;56.80
44729;DHT22;30457;53.590;9.922;2022-10-10T22:14:18;14.70;56.90
44729;DHT22;30457;53.590;9.922;2022-10-10T22:18:43;14.70;57.00
44729;DHT22;30457;53.590;9.922;2022-10-10T22:23:09;14.60;57.00
44729;DHT22;30457;53.590;9.922;2022-10-10T22:27:34;14.60;57.00
44729;DHT22;30457;53.590;9.922;2022-10-10T22:32:00;14.60;57.10
44729;DHT22;30457;53.590;9.922;2022-10-10T22:36:25;14.50;57.10
44729;DHT22;30457;53.590;9.922;2022-10-10T22:40:51;14.50;57.00
44729;DHT22;30457;53.590;9.922;2022-10-10T22:49:44;14.40;57.10
44729;DHT22;30457;53.590;9.922;2022-10-10T22:54:11;14.40;57.00
44729;DHT22;30457;53.590;9.922;2022-10-10T22:58:37;14.40;57.30
44729;DHT22;30457;53.590;9.922;2022-10-10T23:03:03;14.40;57.20
44729;DHT22;30457;53.590;9.922;2022-10-10T23:07:28;14.30;57.10
44729;DHT22;30457;53.590;9.922;2022-10-10T23:11:54;14.30;57.20
44729;DHT22;30457;53.590;9.922;2022-10-10T23:16:19;14.30;57.10
44729;DHT22;30457;53.590;9.922;2022-10-10T23:20:46;14.20;57.10
44729;DHT22;30457;53.590;9.922;2022-10-10T23:25:12;14.20;57.20
44729;DHT22;30457;53.590;9.922;2022-10-10T23:29:37;14.20;57.30
44729;DHT22;30457;53.590;9.922;2022-10-10T23:34:03;14.20;57.20
44729;DHT22;30457;53.590;9.922;2022-10-10T23:38:29;14.20;57.30
44729;DHT22;30457;53.590;9.922;2022-10-10T23:42:54;14.20;57.40
44729;DHT22;30457;53.590;9.922;2022-10-10T23:47:20;14.10;57.20
44729;DHT22;30457;53.590;9.922;2022-10-10T23:51:45;14.10;57.30
44729;DHT22;30457;53.590;9.922;2022-10-10T23:56:11;14.10;57.30
